Time;durP1;ratioP1;P1;durP2;ratioP2;P2;SDS_P1;SDS_P2;PMS_P1;PMS_P2;Temp;Humidity;BMP_temperature;BMP_pressure;BME280_temperature;BME280_humidity;BME280_pressure;Samples;Min_cycle;Max_cycle;Signal;HPM_P1;HPM_P2
2022/07/04 00:02:07;;;;;;;;;;;;;;;-140.72;100.00;52463.91;5010837;28;20024;-71
2022/07/04 00:04:32;;;;;;;;;;;;;;;-140.72;100.00;52508.56;5015618;28;19918;-71
2022/07/04 00:06:58;;;;;;;;;;;;;;;-140.72;100.00;52512.59;5015392;28;19988;-71
2022/07/04 00:09:25;;;;;;;;;;;;;;;-140.72;100.00;52512.59;5016663;28;20257;-71
2022/07/04 00:11:50;;;;;;;;;;;;;;;-140.72;100.00;52516.66;5030362;28;19944;-70
2022/07/04 00:14:19;;;;;;;;;;;;;;;-140.72;100.00;52526.81;5015328;28;19917;-70
2022/07/04 00:16:44;;;;;;;;;;;;;;;-140.72;100.00;52549.13;5013178;28;19925;-71
2022/07/04 00:19:11;;;;;;;;;;;;;;;-140.72;100.00;52500.44;5026205;28;20291;-71
2022/07/04 00:21:36;;;;;;;;;;;;;;;-140.72;100.00;52516.66;5009260;28;19918;-71
2022/07/04 00:24:01;;;;;;;;;;;;;;;-140.72;100.00;52496.38;5007427;28;20506;-70
2022/07/04 00:26:28;;;;;;;;;;;;;;;-140.72;100.00;52530.88;5007091;28;19921;-71
2022/07/04 00:28:53;;;;;;;;;;;;;;;-140.72;100.00;52520.72;5015458;28;19917;-69
2022/07/04 00:31:18;;;;;;;;;;;;;;;-140.72;100.00;52482.16;5010665;28;19922;-71
2022/07/04 00:33:51;;;;;;;;;;;;;;;-140.72;100.00;52500.44;5019874;28;19925;-71
2022/07/04 00:36:16;;;;;;;;;;;;;;;-140.72;100.00;52514.63;5011066;28;19924;-71
2022/07/04 00:38:41;;;;;;;;;;;;;;;-140.72;100.00;52508.56;5014695;28;19976;-71
2022/07/04 00:41:06;;;;;;;;;;;;;;;-140.72;100.00;52500.44;5007532;28;19937;-71
2022/07/04 00:43:31;;;;;;;;;;;;;;;-140.72;100.00;52480.16;5011114;28;19948;-70
2022/07/04 00:45:57;;;;;;;;;;;;;;;-140.72;100.00;52510.59;5015130;28;19918;-71
2022/07/04 00:48:22;;;;;;;;;;;;;;;-140.72;100.00;52508.56;5009768;28;20375;-70
2022/07/04 00:50:48;;;;;;;;;;;;;;;-140.72;100.00;52496.38;5010148;28;19924;-71
2022/07/04 00:53:21;;;;;;;;;;;;;;;-140.72;100.00;52528.84;5014136;28;19928;-72
2022/07/04 00:55:46;;;;;;;;;;;;;;;-140.72;100.00;52514.63;5015114;28;19917;-72
2022/07/04 00:58:12;;;;;;;;;;;;;;;-140.72;100.00;52476.09;5007376;28;20020;-71
2022/07/04 01:00:38;;;;;;;;;;;;;;;-140.72;100.00;52476.09;5009736;28;19921;-71
2022/07/04 01:03:03;;;;;;;;;;;;;;;-140.72;100.00;52518.69;5007534;28;20382;-71
2022/07/04 01:05:28;;;;;;;;;;;;;;;-140.72;100.00;52502.47;5012179;28;20032;-72
2022/07/04 01:07:54;;;;;;;;;;;;;;;-140.72;100.00;52504.50;5009850;28;19918;-71
2022/07/04 01:10:19;;;;;;;;;;;;;;;-140.72;100.00;52443.63;5019917;28;19980;-72
2022/07/04 01:12:44;;;;;;;;;;;;;;;-140.72;100.00;52514.63;5011885;28;20009;-72
2022/07/04 01:15:10;;;;;;;;;;;;;;;-140.72;100.00;52514.63;5019035;28;19917;-72
2022/07/04 01:17:35;;;;;;;;;;;;;;;-140.72;100.00;52541.03;5012650;28;19918;-72
2022/07/04 01:20:01;;;;;;;;;;;;;;;-140.72;100.00;52528.84;5009334;28;20016;-72
2022/07/04 01:22:26;;;;;;;;;;;;;;;-140.72;100.00;52506.53;5008839;28;19918;-72
2022/07/04 01:24:51;;;;;;;;;;;;;;;-140.72;100.00;52500.44;5013287;28;19944;-72
2022/07/04 01:27:17;;;;;;;;;;;;;;;-140.72;100.00;52534.94;5008594;28;19922;-71
2022/07/04 01:29:43;;;;;;;;;;;;;;;-140.72;100.00;52516.66;5013044;28;19924;-71
2022/07/04 01:32:09;;;;;;;;;;;;;;;-140.72;100.00;52486.22;5014624;28;19921;-71
2022/07/04 01:34:34;;;;;;;;;;;;;;;-140.72;100.00;52482.16;5021507;28;20374;-71
2022/07/04 01:37:00;;;;;;;;;;;;;;;-140.72;100.00;52510.59;5013402;28;19921;-71
2022/07/04 01:39:26;;;;;;;;;;;;;;;-140.72;100.00;52528.84;5012092;28;19922;-70
2022/07/04 01:41:51;;;;;;;;;;;;;;;-140.72;100.00;52532.91;5013290;28;19918;-71
2022/07/04 01:44:17;;;;;;;;;;;;;;;-140.72;100.00;52500.44;5012159;28;20318;-71
2022/07/04 01:46:42;;;;;;;;;;;;;;;-140.72;100.00;52532.91;5013365;28;20377;-71
2022/07/04 01:49:08;;;;;;;;;;;;;;;-140.72;100.00;52512.59;5012464;28;19957;-71
2022/07/04 01:51:33;;;;;;;;;;;;;;;-140.72;100.00;52512.59;5013147;28;19928;-71
2022/07/04 01:53:58;;;;;;;;;;;;;;;-140.72;100.00;52520.72;5017794;28;19921;-71
2022/07/04 01:56:24;;;;;;;;;;;;;;;-140.72;100.00;52549.13;5035737;28;19917;-71
2022/07/04 01:58:49;;;;;;;;;;;;;;;-140.72;100.00;52492.31;5010701;28;19961;-71
2022/07/04 02:01:29;;;;;;;;;;;;;;;-140.72;100.00;52563.34;5013206;28;19986;-71
2022/07/04 02:03:55;;;;;;;;;;;;;;;-140.72;100.00;52508.56;5009676;28;19921;-71
2022/07/04 02:06:20;;;;;;;;;;;;;;;-140.72;100.00;52516.66;5008717;28;19976;-72
2022/07/04 02:13:00;;;;;;;;;;;;;;;-140.72;100.00;52516.66;5012174;28;19925;-71
2022/07/04 02:14:14;;;;;;;;;;;;;;;-140.72;100.00;52500.44;5010564;28;20390;-72
2022/07/04 02:16:39;;;;;;;;;;;;;;;-140.72;100.00;52516.66;5014778;28;19924;-71
2022/07/04 02:19:04;;;;;;;;;;;;;;;-140.72;100.00;52522.75;5009465;28;19929;-71
2022/07/04 02:21:30;;;;;;;;;;;;;;;-140.72;100.00;52524.78;5013612;28;19922;-71
2022/07/04 02:23:55;;;;;;;;;;;;;;;-140.72;100.00;52506.53;5014866;28;19924;-72
2022/07/04 02:26:20;;;;;;;;;;;;;;;-140.72;100.00;52508.56;5016469;28;20420;-71
2022/07/04 02:28:57;;;;;;;;;;;;;;;-140.72;100.00;52508.56;5013720;28;19928;-71
2022/07/04 02:31:22;;;;;;;;;;;;;;;-140.72;100.00;52526.81;5017272;28;20306;-71
2022/07/04 03:14:17;;;;;;;;;;;;;;;-140.72;100.00;52530.88;5906191;22;19925;-68
2022/07/04 03:16:42;;;;;;;;;;;;;;;-140.72;100.00;52530.88;5028312;28;19926;-70
2022/07/04 03:19:08;;;;;;;;;;;;;;;-140.72;100.00;52565.38;5027251;28;19965;-68
2022/07/04 03:21:33;;;;;;;;;;;;;;;-140.72;100.00;52488.25;5019616;28;19938;-69
2022/07/04 03:23:58;;;;;;;;;;;;;;;-140.72;100.00;52526.81;5026402;28;19986;-70
2022/07/04 03:26:29;;;;;;;;;;;;;;;-140.72;100.00;52508.56;5029007;28;19973;-69
2022/07/04 03:28:54;;;;;;;;;;;;;;;-140.72;100.00;52522.75;5031517;28;19937;-71
2022/07/04 03:31:20;;;;;;;;;;;;;;;-140.72;100.00;52583.63;5026571;28;19922;-69
2022/07/04 03:33:45;;;;;;;;;;;;;;;-140.72;100.00;52516.66;5033678;28;19988;-68
2022/07/04 03:36:10;;;;;;;;;;;;;;;-140.72;100.00;52534.94;5031193;28;19925;-69
2022/07/04 03:38:36;;;;;;;;;;;;;;;-140.72;100.00;52504.50;5034530;28;19912;-69
2022/07/04 03:41:01;;;;;;;;;;;;;;;-140.72;100.00;52506.53;5033697;28;19960;-68
2022/07/04 03:43:26;;;;;;;;;;;;;;;-140.72;100.00;52545.06;5031931;28;19921;-69
2022/07/04 03:45:51;;;;;;;;;;;;;;;-140.72;100.00;52526.81;5043910;28;19920;-70
2022/07/04 03:48:16;;;;;;;;;;;;;;;-140.72;100.00;52526.81;5036033;28;19906;-68
2022/07/04 03:50:42;;;;;;;;;;;;;;;-140.72;100.00;52518.69;5034020;28;19924;-69
2022/07/04 03:53:07;;;;;;;;;;;;;;;-140.72;100.00;52500.44;5023385;28;19906;-70
2022/07/04 03:55:32;;;;;;;;;;;;;;;-140.72;100.00;52512.59;5035701;28;19921;-69
2022/07/04 03:57:57;;;;;;;;;;;;;;;-140.72;100.00;52506.53;5027623;28;19934;-69
2022/07/04 04:00:23;;;;;;;;;;;;;;;-140.72;100.00;52463.91;5023791;28;19925;-68
2022/07/04 04:02:48;;;;;;;;;;;;;;;-140.72;100.00;52510.59;5021690;28;20014;-68
2022/07/04 04:05:32;;;;;;;;;;;;;;;-140.72;100.00;52484.19;5034247;28;19925;-69
2022/07/04 04:07:58;;;;;;;;;;;;;;;-140.72;100.00;52524.78;5029670;28;19940;-70
2022/07/04 04:10:24;;;;;;;;;;;;;;;-140.72;100.00;52486.22;5036047;28;19906;-69
2022/07/04 04:12:50;;;;;;;;;;;;;;;-140.72;100.00;52465.94;5035029;28;19947;-69
2022/07/04 04:15:16;;;;;;;;;;;;;;;-140.72;100.00;52504.50;5022474;28;19961;-68
2022/07/04 04:17:41;;;;;;;;;;;;;;;-140.72;100.00;52530.88;5034300;28;19916;-69
2022/07/04 04:20:08;;;;;;;;;;;;;;;-140.72;100.00;52484.19;5033950;28;19949;-69
2022/07/04 04:22:33;;;;;;;;;;;;;;;-140.72;100.00;52480.16;5034930;28;19922;-68
2022/07/04 04:24:59;;;;;;;;;;;;;;;-140.72;100.00;52486.22;5046456;28;19974;-69
2022/07/04 04:27:24;;;;;;;;;;;;;;;-140.72;100.00;52500.44;5015811;28;19975;-70
2022/07/04 04:29:49;;;;;;;;;;;;;;;-140.72;100.00;52492.31;5016617;28;19918;-73
2022/07/04 04:32:15;;;;;;;;;;;;;;;-140.72;100.00;52476.09;5017133;28;20325;-72
2022/07/04 04:34:40;;;;;;;;;;;;;;;-140.72;100.00;52486.22;5018977;28;19917;-72
2022/07/04 04:37:05;;;;;;;;;;;;;;;-140.72;100.00;52504.50;5013294;28;19985;-69
2022/07/04 04:39:30;;;;;;;;;;;;;;;-140.72;100.00;52463.91;5028196;28;19921;-71
2022/07/04 04:41:56;;;;;;;;;;;;;;;-140.72;100.00;52476.09;5023709;28;19940;-71
2022/07/04 04:44:21;;;;;;;;;;;;;;;-140.72;100.00;52451.72;5020750;28;19918;-71
2022/07/04 04:46:47;;;;;;;;;;;;;;;-140.72;100.00;52478.13;5014869;28;19926;-71
2022/07/04 04:49:13;;;;;;;;;;;;;;;-140.72;100.00;52504.50;5011258;28;19918;-72
2022/07/04 04:51:38;;;;;;;;;;;;;;;-140.72;100.00;52459.84;5020885;28;20008;-71
2022/07/04 04:54:03;;;;;;;;;;;;;;;-140.72;100.00;52474.06;5018737;28;19924;-75
2022/07/04 04:56:29;;;;;;;;;;;;;;;-140.72;100.00;52465.94;5025085;28;19918;-72
2022/07/04 04:58:54;;;;;;;;;;;;;;;-140.72;100.00;52488.25;5026345;28;19917;-71
2022/07/04 05:01:19;;;;;;;;;;;;;;;-140.72;100.00;52449.72;5019527;28;19929;-73
2022/07/04 05:03:45;;;;;;;;;;;;;;;-140.72;100.00;52447.69;5032895;28;19917;-71
2022/07/04 05:06:10;;;;;;;;;;;;;;;-140.72;100.00;52455.78;5012515;28;19975;-74
2022/07/04 05:08:35;;;;;;;;;;;;;;;-140.72;100.00;52447.69;5019109;28;20299;-70
2022/07/04 05:11:00;;;;;;;;;;;;;;;-140.72;100.00;52451.72;5037325;28;19928;-72
2022/07/04 05:13:25;;;;;;;;;;;;;;;-140.72;100.00;52455.78;5038481;28;19964;-73
2022/07/04 05:15:51;;;;;;;;;;;;;;;-140.72;100.00;52463.91;5017473;28;19937;-73
2022/07/04 05:18:16;;;;;;;;;;;;;;;-140.72;100.00;52484.19;5016323;28;20371;-71
2022/07/04 05:20:41;;;;;;;;;;;;;;;-140.72;100.00;52472.03;5018777;28;19917;-72
2022/07/04 05:23:06;;;;;;;;;;;;;;;-140.72;100.00;52467.97;5022233;28;20001;-69
2022/07/04 05:25:35;;;;;;;;;;;;;;;-140.72;100.00;52419.28;5014046;28;19992;-69
2022/07/04 05:28:00;;;;;;;;;;;;;;;-140.72;100.00;52425.34;5016059;28;19918;-69
2022/07/04 05:30:25;;;;;;;;;;;;;;;-140.72;100.00;52470.00;5022126;28;20040;-78
2022/07/04 05:32:50;;;;;;;;;;;;;;;-140.72;100.00;52459.84;5021527;28;20351;-73
2022/07/04 05:35:16;;;;;;;;;;;;;;;-140.72;100.00;52421.28;5020046;28;19940;-69
2022/07/04 05:37:41;;;;;;;;;;;;;;;-140.72;100.00;52461.88;5025748;28;19917;-68
2022/07/04 05:40:07;;;;;;;;;;;;;;;-140.72;100.00;52455.78;5028831;28;19917;-67
2022/07/04 05:42:33;;;;;;;;;;;;;;;-140.72;100.00;52451.72;5022039;28;19924;-66
2022/07/04 05:44:59;;;;;;;;;;;;;;;-140.72;100.00;52417.25;5027708;28;19941;-66
2022/07/04 05:47:24;;;;;;;;;;;;;;;-140.72;100.00;52427.38;5026748;28;19918;-67
2022/07/04 05:49:50;;;;;;;;;;;;;;;-140.72;100.00;52413.19;5025732;28;20024;-69
2022/07/04 05:52:15;;;;;;;;;;;;;;;-140.72;100.00;52421.28;5024552;28;19932;-66
2022/07/04 05:54:40;;;;;;;;;;;;;;;-140.72;100.00;52451.72;5027511;28;20367;-66
2022/07/04 05:57:06;;;;;;;;;;;;;;;-140.72;100.00;52403.03;5022092;28;19996;-68
2022/07/04 05:59:31;;;;;;;;;;;;;;;-140.72;100.00;52419.28;5014319;28;19989;-68
2022/07/04 06:01:56;;;;;;;;;;;;;;;-140.72;100.00;52431.44;5023954;28;19921;-69
2022/07/04 06:04:22;;;;;;;;;;;;;;;-140.72;100.00;52435.50;5012426;28;20255;-68
2022/07/04 06:06:47;;;;;;;;;;;;;;;-140.72;100.00;52415.22;5009699;28;19917;-68
2022/07/04 06:09:12;;;;;;;;;;;;;;;-140.72;100.00;52425.34;5017308;28;20259;-69
2022/07/04 06:11:37;;;;;;;;;;;;;;;-140.72;100.00;52429.41;5012512;28;19918;-68
2022/07/04 06:14:03;;;;;;;;;;;;;;;-140.72;100.00;52427.38;5021282;28;19917;-68
2022/07/04 06:16:28;;;;;;;;;;;;;;;-140.72;100.00;52398.97;5020085;28;19948;-68
2022/07/04 06:18:53;;;;;;;;;;;;;;;-140.72;100.00;52403.03;5026054;28;19961;-67
2022/07/04 06:21:18;;;;;;;;;;;;;;;-140.72;100.00;52390.84;5021837;28;19921;-68
2022/07/04 06:23:43;;;;;;;;;;;;;;;-140.72;100.00;52435.50;5022956;28;19922;-68
2022/07/04 06:26:09;;;;;;;;;;;;;;;-140.72;100.00;52386.81;5025754;28;19933;-68
2022/07/04 06:28:34;;;;;;;;;;;;;;;-140.72;100.00;52411.16;5015412;28;19921;-68
2022/07/04 06:30:59;;;;;;;;;;;;;;;-140.72;100.00;52417.25;5025859;28;19922;-68
2022/07/04 06:33:24;;;;;;;;;;;;;;;-140.72;100.00;52407.09;5017300;28;19918;-68
2022/07/04 06:35:55;;;;;;;;;;;;;;;-140.72;100.00;52437.53;5025239;28;19917;-69
2022/07/04 06:38:22;;;;;;;;;;;;;;;-140.72;100.00;52382.75;5021800;28;19922;-68
2022/07/04 06:40:52;;;;;;;;;;;;;;;-140.72;100.00;52374.63;5016912;28;19961;-72
2022/07/04 06:43:18;;;;;;;;;;;;;;;-140.72;100.00;52403.03;5016623;28;19917;-70
2022/07/04 06:45:43;;;;;;;;;;;;;;;-140.72;100.00;52411.16;5013273;28;19968;-69
2022/07/04 06:48:08;;;;;;;;;;;;;;;-140.72;100.00;52401.00;5020154;28;19932;-69
2022/07/04 06:50:34;;;;;;;;;;;;;;;-140.72;100.00;52370.56;5021923;28;19941;-69
2022/07/04 06:53:00;;;;;;;;;;;;;;;-140.72;100.00;52364.47;5018396;28;20063;-68
2022/07/04 06:55:25;;;;;;;;;;;;;;;-140.72;100.00;52398.97;5017198;28;19921;-69
2022/07/04 06:57:51;;;;;;;;;;;;;;;-140.72;100.00;52380.72;5013750;28;19918;-69
2022/07/04 07:00:16;;;;;;;;;;;;;;;-140.72;100.00;52415.22;5015980;28;20009;-70
2022/07/04 07:02:41;;;;;;;;;;;;;;;-140.72;100.00;52374.63;5018059;28;19921;-69
2022/07/04 07:05:07;;;;;;;;;;;;;;;-140.72;100.00;52390.84;5019720;28;19917;-70
2022/07/04 07:07:32;;;;;;;;;;;;;;;-140.72;100.00;52378.69;5014493;28;19966;-72
2022/07/04 07:09:57;;;;;;;;;;;;;;;-140.72;100.00;52407.09;5011616;28;19917;-69
2022/07/04 07:12:23;;;;;;;;;;;;;;;-140.72;100.00;52398.97;5021726;28;20016;-69
2022/07/04 07:14:49;;;;;;;;;;;;;;;-140.72;100.00;52350.28;5017998;28;19980;-69
2022/07/04 07:17:15;;;;;;;;;;;;;;;-140.72;100.00;52354.34;5015288;28;19937;-68
2022/07/04 07:19:40;;;;;;;;;;;;;;;-140.72;100.00;52356.38;5010346;28;20375;-70
2022/07/04 07:22:06;;;;;;;;;;;;;;;-140.72;100.00;52413.19;5011690;28;19922;-69
2022/07/04 07:24:31;;;;;;;;;;;;;;;-140.72;100.00;52334.03;5017827;28;19922;-67
2022/07/04 07:26:56;;;;;;;;;;;;;;;-140.72;100.00;52368.53;5020632;28;19921;-68
2022/07/04 07:29:22;;;;;;;;;;;;;;;-140.72;100.00;52327.97;5023164;28;19968;-68
2022/07/04 07:31:47;;;;;;;;;;;;;;;-140.72;100.00;52330.00;5022448;28;19921;-69
2022/07/04 07:34:13;;;;;;;;;;;;;;;-140.72;100.00;52356.38;5021375;28;19922;-70
2022/07/04 07:36:38;;;;;;;;;;;;;;;-140.72;100.00;52370.56;5015475;28;19992;-69
2022/07/04 07:39:03;;;;;;;;;;;;;;;-140.72;100.00;52376.66;5021826;28;19928;-69
2022/07/04 07:41:29;;;;;;;;;;;;;;;-140.72;100.00;52374.63;5022070;28;19921;-69
2022/07/04 07:43:54;;;;;;;;;;;;;;;-140.72;100.00;52382.75;5014330;28;19917;-70
2022/07/04 07:46:19;;;;;;;;;;;;;;;-140.72;100.00;52342.16;5017736;28;19917;-68
2022/07/04 07:48:44;;;;;;;;;;;;;;;-140.72;100.00;52338.09;5021824;28;20094;-69
2022/07/04 07:51:10;;;;;;;;;;;;;;;-140.72;100.00;52382.75;5020871;28;19929;-69
2022/07/04 07:53:35;;;;;;;;;;;;;;;-140.72;100.00;52348.25;5019564;28;20008;-69
2022/07/04 07:56:00;;;;;;;;;;;;;;;-140.72;100.00;52344.19;5019690;28;19964;-69
2022/07/04 07:58:26;;;;;;;;;;;;;;;-140.72;100.00;52338.09;5030683;28;19975;-70
2022/07/04 08:00:51;;;;;;;;;;;;;;;-140.72;100.00;52307.66;5036942;28;19918;-69
2022/07/04 08:06:00;;;;;;;;;;;;;;;-140.72;100.00;52291.44;5004573;28;19928;-68
2022/07/04 08:08:25;;;;;;;;;;;;;;;-140.72;100.00;52325.94;5012062;28;19918;-68
2022/07/04 08:10:51;;;;;;;;;;;;;;;-140.72;100.00;52336.06;5017429;28;19929;-68
2022/07/04 08:13:16;;;;;;;;;;;;;;;-140.72;100.00;52309.69;5019207;28;19917;-70
2022/07/04 08:15:41;;;;;;;;;;;;;;;-140.72;100.00;52265.06;5011312;28;19926;-70
2022/07/04 08:18:06;;;;;;;;;;;;;;;-140.72;100.00;52321.88;5011973;28;19922;-68
2022/07/04 08:20:32;;;;;;;;;;;;;;;-140.72;100.00;52293.47;5011300;28;19948;-68
2022/07/04 08:22:57;;;;;;;;;;;;;;;-140.72;100.00;52267.09;5013498;28;19964;-69
2022/07/04 08:25:25;;;;;;;;;;;;;;;-140.72;100.00;52204.19;5013617;28;19918;-70
2022/07/04 08:27:51;;;;;;;;;;;;;;;-140.72;100.00;52240.72;5010678;28;20004;-67
2022/07/04 08:30:16;;;;;;;;;;;;;;;-140.72;100.00;52244.78;5027679;28;19905;-68
2022/07/04 08:32:42;;;;;;;;;;;;;;;-140.72;100.00;52279.25;5033789;28;19928;-70
2022/07/04 08:35:07;;;;;;;;;;;;;;;-140.72;100.00;52261.00;5021643;28;19929;-69
2022/07/04 08:37:33;;;;;;;;;;;;;;;-140.72;100.00;52283.31;5026323;28;19976;-70
2022/07/04 08:39:58;;;;;;;;;;;;;;;-140.72;100.00;52309.69;5027530;28;19917;-71
2022/07/04 08:42:23;;;;;;;;;;;;;;;-140.72;100.00;52309.69;5014652;28;19918;-69
2022/07/04 08:44:50;;;;;;;;;;;;;;;-140.72;100.00;52323.91;5023453;28;19922;-68
2022/07/04 08:47:25;;;;;;;;;;;;;;;-140.72;100.00;52348.25;5012603;28;20057;-69
2022/07/04 08:49:58;;;;;;;;;;;;;;;-140.72;100.00;52289.41;5022818;28;20359;-70
2022/07/04 08:52:30;;;;;;;;;;;;;;;-140.72;100.00;52254.91;5023521;28;19964;-68
2022/07/04 09:00:24;;;;;;;;;;;;;;;-140.72;100.00;52313.75;5010111;28;19944;-69
2022/07/04 09:02:50;;;;;;;;;;;;;;;-140.72;100.00;52285.34;5022278;28;19952;-69
2022/07/04 09:05:16;;;;;;;;;;;;;;;-140.72;100.00;52317.81;5028002;28;20052;-69
2022/07/04 09:07:41;;;;;;;;;;;;;;;-140.72;100.00;52330.00;5022073;28;19918;-69
2022/07/04 09:10:07;;;;;;;;;;;;;;;-140.72;100.00;52273.19;5022509;28;20267;-69
2022/07/04 09:12:32;;;;;;;;;;;;;;;-140.72;100.00;52340.13;5021430;28;19917;-70
2022/07/04 09:14:59;;;;;;;;;;;;;;;-140.72;100.00;52289.41;5033446;28;19921;-69
2022/07/04 09:17:24;;;;;;;;;;;;;;;-140.72;100.00;52299.56;5011786;28;19924;-68
2022/07/04 09:20:25;;;;;;;;;;;;;;;-140.72;100.00;52299.56;5022491;28;19960;-68
2022/07/04 09:22:51;;;;;;;;;;;;;;;-140.72;100.00;52177.81;4963335;29;19919;-68
2022/07/04 09:25:17;;;;;;;;;;;;;;;-140.72;100.00;52210.28;5011793;28;20358;-69
2022/07/04 09:27:52;;;;;;;;;;;;;;;-140.72;100.00;52145.34;5020511;28;19929;-70
2022/07/04 09:30:19;;;;;;;;;;;;;;;-140.72;100.00;52183.91;5011701;28;19917;-69
2022/07/04 09:32:45;;;;;;;;;;;;;;;-140.72;100.00;52137.22;5023896;28;19987;-69
2022/07/04 09:35:12;;;;;;;;;;;;;;;-140.72;100.00;52108.81;5025869;28;19918;-70
2022/07/04 09:37:42;;;;;;;;;;;;;;;-140.72;100.00;52133.16;5027185;28;19917;-68
2022/07/04 09:40:10;;;;;;;;;;;;;;;-140.72;100.00;52049.97;5028502;28;19923;-69
2022/07/04 09:42:36;;;;;;;;;;;;;;;-140.72;100.00;52082.44;5033136;28;19985;-69
2022/07/04 09:45:10;;;;;;;;;;;;;;;-140.72;100.00;52066.22;5028026;28;19929;-68
2022/07/04 09:47:36;;;;;;;;;;;;;;;-140.72;100.00;52025.63;5025207;28;19971;-68
2022/07/04 09:50:12;;;;;;;;;;;;;;;-140.72;100.00;52106.78;5021956;28;19984;-69
2022/07/04 09:52:45;;;;;;;;;;;;;;;-140.72;100.00;52033.75;5011986;28;19918;-69
2022/07/04 09:55:10;;;;;;;;;;;;;;;-140.72;100.00;52045.94;5024226;28;19918;-68
2022/07/04 09:57:35;;;;;;;;;;;;;;;-140.72;100.00;52131.16;5008848;28;19949;-68
2022/07/04 10:00:19;;;;;;;;;;;;;;;-140.72;100.00;52033.75;5021130;28;19962;-68
2022/07/04 10:02:45;;;;;;;;;;;;;;;-140.72;100.00;52131.16;5016987;28;19924;-69
2022/07/04 10:05:10;;;;;;;;;;;;;;;-140.72;100.00;52056.06;5015050;28;19925;-69
2022/07/04 10:07:48;;;;;;;;;;;;;;;-140.72;100.00;51995.19;5016645;28;19926;-69
2022/07/04 10:10:40;;;;;;;;;;;;;;;-140.72;100.00;51958.69;5003581;28;19918;-69
2022/07/04 10:13:07;;;;;;;;;;;;;;;-140.72;100.00;51940.41;5002352;28;19929;-68
2022/07/04 10:15:33;;;;;;;;;;;;;;;-140.72;100.00;51928.25;5018108;28;19929;-68
2022/07/04 10:17:59;;;;;;;;;;;;;;;-140.72;100.00;51987.09;5020415;28;19958;-70
2022/07/04 10:20:24;;;;;;;;;;;;;;;-140.72;100.00;51970.84;5017945;28;19953;-70
2022/07/04 10:22:49;;;;;;;;;;;;;;;-140.72;100.00;52070.28;5021147;28;19961;-70
2022/07/04 10:25:15;;;;;;;;;;;;;;;-140.72;100.00;52003.31;5021601;28;20353;-69
2022/07/04 10:27:40;;;;;;;;;;;;;;;-140.72;100.00;51930.28;5019481;28;20331;-71
2022/07/04 10:30:07;;;;;;;;;;;;;;;-140.72;100.00;51907.97;5019389;28;19918;-69
2022/07/04 10:32:33;;;;;;;;;;;;;;;-140.72;100.00;51895.78;5016359;28;19921;-70
2022/07/04 10:34:59;;;;;;;;;;;;;;;-140.72;100.00;51887.66;4998498;28;19961;-71
2022/07/04 10:37:24;;;;;;;;;;;;;;;-140.72;100.00;51875.50;5012346;28;19925;-70
2022/07/04 10:39:49;;;;;;;;;;;;;;;-140.72;100.00;51958.69;5009951;28;19918;-70
2022/07/04 10:42:24;;;;;;;;;;;;;;;-140.72;100.00;52033.75;5018186;28;19941;-72
2022/07/04 10:44:50;;;;;;;;;;;;;;;-140.72;100.00;52131.16;5020350;28;19918;-70
2022/07/04 10:47:21;;;;;;;;;;;;;;;-140.72;100.00;51968.81;5023699;28;19993;-71
2022/07/04 10:49:48;;;;;;;;;;;;;;;-140.72;100.00;51912.03;5021838;28;19928;-67
2022/07/04 10:52:13;;;;;;;;;;;;;;;-140.72;98.05;51810.56;5014096;28;19988;-69
2022/07/04 10:54:39;;;;;;;;;;;;;;;-140.72;100.00;51901.88;5024987;28;19921;-69
2022/07/04 10:57:10;;;;;;;;;;;;;;;-140.72;100.00;51885.66;5009717;28;19945;-69
2022/07/04 10:59:35;;;;;;;;;;;;;;;-140.72;100.00;51960.72;5022971;28;20108;-69
2022/07/04 11:02:22;;;;;;;;;;;;;;;-140.72;100.00;51928.25;5023849;28;19925;-69
2022/07/04 11:04:54;;;;;;;;;;;;;;;-140.72;100.00;51859.28;5019302;28;19922;-68
2022/07/04 11:07:35;;;;;;;;;;;;;;;-140.72;100.00;51830.88;5017921;28;19933;-68
2022/07/04 11:10:20;;;;;;;;;;;;;;;-140.72;100.00;51778.13;5019258;28;20010;-69
2022/07/04 11:12:55;;;;;;;;;;;;;;;-140.72;100.00;51972.88;5017686;28;19921;-69
2022/07/04 11:15:29;;;;;;;;;;;;;;;-140.72;100.00;51907.97;5010186;28;19945;-68
2022/07/04 11:17:55;;;;;;;;;;;;;;;-140.72;100.00;51914.03;5014073;28;19922;-69
2022/07/04 11:20:20;;;;;;;;;;;;;;;-140.72;100.00;51843.03;5013135;28;19925;-68
2022/07/04 11:22:46;;;;;;;;;;;;;;;-140.72;100.00;51976.94;5015820;28;19922;-70
2022/07/04 11:25:11;;;;;;;;;;;;;;;-140.72;100.00;51889.69;5013743;28;19945;-71
2022/07/04 11:27:37;;;;;;;;;;;;;;;-140.72;100.00;51845.06;5026265;28;20009;-68
2022/07/04 11:30:02;;;;;;;;;;;;;;;-140.72;100.00;51859.28;5021930;28;19925;-69
2022/07/04 11:32:32;;;;;;;;;;;;;;;-140.72;93.43;51812.59;5014645;28;20351;-68
2022/07/04 11:34:57;;;;;;;;;;;;;;;-140.72;96.96;51784.19;5008930;28;19917;-68
2022/07/04 11:37:23;;;;;;;;;;;;;;;-140.72;88.08;51788.25;5020515;28;19925;-69
2022/07/04 11:39:51;;;;;;;;;;;;;;;-140.72;89.43;51806.53;5021072;28;19918;-70
2022/07/04 11:45:07;;;;;;;;;;;;;;;-140.72;88.23;51899.84;5014856;28;20410;-70
2022/07/04 11:47:32;;;;;;;;;;;;;;;-140.72;100.00;51914.03;5008529;28;19923;-69
2022/07/04 11:49:59;;;;;;;;;;;;;;;-140.72;100.00;51883.63;5022832;28;19957;-69
2022/07/04 11:52:25;;;;;;;;;;;;;;;-140.72;100.00;51851.16;5022609;28;19918;-70
2022/07/04 11:54:51;;;;;;;;;;;;;;;-140.72;100.00;51871.44;5021400;28;19917;-71
2022/07/04 11:57:21;;;;;;;;;;;;;;;-140.72;97.19;51954.63;5015208;28;19961;-69
2022/07/04 11:59:54;;;;;;;;;;;;;;;-140.72;94.75;51806.53;5019222;28;20052;-69
2022/07/04 12:02:19;;;;;;;;;;;;;;;-140.72;93.55;51830.88;5012709;28;20298;-70
2022/07/04 12:04:44;;;;;;;;;;;;;;;-140.72;90.03;51784.19;5016162;28;19984;-69
2022/07/04 12:07:14;;;;;;;;;;;;;;;-140.72;99.81;51871.44;5018910;28;19918;-69
2022/07/04 12:09:40;;;;;;;;;;;;;;;-140.72;100.00;51968.81;5012037;28;20391;-68
2022/07/04 12:12:05;;;;;;;;;;;;;;;-140.72;98.72;51871.44;5008650;28;19976;-69
2022/07/04 12:14:31;;;;;;;;;;;;;;;-140.72;86.95;51749.72;5014668;28;20000;-69
2022/07/04 12:17:29;;;;;;;;;;;;;;;-140.72;81.41;51729.44;5018232;28;19921;-68
2022/07/04 12:19:54;;;;;;;;;;;;;;;-140.72;78.78;51737.53;4972000;28;20463;-70
2022/07/04 12:22:30;;;;;;;;;;;;;;;-140.72;82.24;51810.56;5005211;28;19949;-69
2022/07/04 12:24:56;;;;;;;;;;;;;;;-140.72;91.31;51745.66;5020360;28;19921;-69
2022/07/04 12:27:21;;;;;;;;;;;;;;;-140.72;88.35;51867.38;5017318;28;19933;-70
2022/07/04 12:29:47;;;;;;;;;;;;;;;-140.72;86.21;51721.31;5020513;28;19967;-69
2022/07/04 12:32:14;;;;;;;;;;;;;;;-140.72;84.25;51814.63;5006303;28;19928;-70
2022/07/04 12:34:39;;;;;;;;;;;;;;;-140.72;93.73;51814.63;5020664;28;19956;-69
2022/07/04 12:37:07;;;;;;;;;;;;;;;-140.72;89.60;51808.53;5009867;28;19940;-69
2022/07/04 12:39:34;;;;;;;;;;;;;;;-140.72;90.06;51822.75;5015002;28;20324;-69
2022/07/04 12:42:14;;;;;;;;;;;;;;;-140.72;79.33;51774.06;5006681;28;19944;-69
2022/07/04 12:44:41;;;;;;;;;;;;;;;-140.72;85.94;51867.38;5018051;28;19917;-69
2022/07/04 12:47:07;;;;;;;;;;;;;;;-140.72;86.56;51729.44;5017937;28;19925;-69
2022/07/04 12:49:32;;;;;;;;;;;;;;;-140.72;85.08;51759.84;5019648;28;19968;-70
2022/07/04 12:52:12;;;;;;;;;;;;;;;-140.72;74.00;51749.72;5009887;28;19918;-68
2022/07/04 12:54:38;;;;;;;;;;;;;;;-140.72;79.90;51723.34;5009169;28;19941;-69
2022/07/04 12:57:04;;;;;;;;;;;;;;;-140.72;78.03;51792.31;5007381;28;19921;-69
2022/07/04 12:59:30;;;;;;;;;;;;;;;-140.72;87.83;51767.97;5015907;28;19972;-69
2022/07/04 13:01:55;;;;;;;;;;;;;;;-140.72;79.24;51790.28;5002877;28;19925;-69
2022/07/04 13:04:20;;;;;;;;;;;;;;;-140.72;80.96;51810.56;5012253;28;19917;-68
2022/07/04 13:06:46;;;;;;;;;;;;;;;-140.72;80.73;51808.53;5013752;28;19917;-67
2022/07/04 13:09:12;;;;;;;;;;;;;;;-140.72;93.83;51871.44;5015952;28;19956;-69
2022/07/04 13:14:21;;;;;;;;;;;;;;;-140.72;85.28;51806.53;4935413;28;1889792;-69